LEXJ/SDR METAR and TAF weather

Enter ICAO airport designator
Station Type Date Time Source
LEXJ METAR 2021/09/23 18:00 UTC NOAA

LEXJ 231800Z 08004KT 010V150 9999 FEW024 19/17 Q1019


Station Type Date Time Source
LEXJ Decoded METAR 2021/09/23 18:00 UTC NOAA

Santander / Parayas, Spain (LEXJ) 43-26N 003-49W 9M
Sep 23, 2021 - 02:00 PM EDT / 2021.09.23 1800 UTC
Wind: from the E (080 degrees) at 5 MPH (4 KT) (direction variable):0
Visibility: greater than 7 mile(s):0
Sky conditions: mostly clear
Temperature: 66 F (19 C)
Dew Point: 62 F (17 C)
Relative Humidity: 88%
Pressure (altimeter): 30.09 in. Hg (1019 hPa)
ob: LEXJ 231800Z 08004KT 010V150 9999 FEW024 19/17 Q1019
cycle: 18

Station Type Date Time Source
LEXJ TAF 2021/09/23 15:27 UTC NOAA

TAF LEXJ 231400Z 2315/2415 VRB05KT 9999 SCT020 TX26/2413Z TN14/2406Z
TEMPO 2315/2319 05010KT PROB30
TEMPO 2400/2407 3000 BR BKN010
TEMPO 2411/2415 05010KT PROB40
TEMPO 2414/2415 3000 RA SHRA BKN010 SCT030TCU

Example: see airport list